createdAt,value
2019-02-23T00:02:24.859Z,3.20
2019-02-23T00:04:53.506Z,3.20
2019-02-23T00:07:22.113Z,4.00
2019-02-23T00:09:50.725Z,4.93
2019-02-23T00:12:19.356Z,5.93
2019-02-23T00:14:48.292Z,5.17
2019-02-23T00:17:17.253Z,3.10
2019-02-23T00:19:45.888Z,5.87
2019-02-23T00:22:14.485Z,3.93
2019-02-23T00:24:43.069Z,4.00
2019-02-23T00:27:12.085Z,3.33
2019-02-23T00:29:40.749Z,3.57
2019-02-23T00:32:09.424Z,4.13
2019-02-23T00:34:38.071Z,4.20
2019-02-23T00:37:06.675Z,4.20
2019-02-23T00:39:35.261Z,2.83
2019-02-23T00:42:03.873Z,4.80
2019-02-23T00:44:32.459Z,2.57
2019-02-23T00:47:01.059Z,4.50
2019-02-23T00:49:36.223Z,3.60
2019-02-23T00:51:59.934Z,4.43
2019-02-23T00:54:28.513Z,7.23
2019-02-23T00:56:57.137Z,5.77
2019-02-23T00:59:25.786Z,4.03
2019-02-23T01:01:55.116Z,4.13
2019-02-23T01:04:23.685Z,6.30
2019-02-23T01:06:52.296Z,5.10
2019-02-23T01:09:20.919Z,5.40
2019-02-23T01:11:50.796Z,4.60
2019-02-23T01:14:19.379Z,4.73
2019-02-23T01:16:47.987Z,3.33
2019-02-23T01:19:17.230Z,4.17
2019-02-23T01:21:45.862Z,3.97
2019-02-23T01:24:14.447Z,3.73
2019-02-23T01:26:43.066Z,3.90
2019-02-23T01:29:12.021Z,3.33
2019-02-23T01:31:40.671Z,5.00
2019-02-23T01:34:09.308Z,3.33
2019-02-23T01:36:37.914Z,4.57
2019-02-23T01:39:07.028Z,3.83
2019-02-23T01:41:35.639Z,8.47
2019-02-23T01:44:04.672Z,3.00
2019-02-23T01:46:33.293Z,6.07
2019-02-23T01:49:01.953Z,4.47
2019-02-23T01:51:30.568Z,7.73
2019-02-23T01:53:59.173Z,5.83
2019-02-23T01:56:27.787Z,3.77
2019-02-23T01:58:56.427Z,5.43
2019-02-23T02:01:25.684Z,5.73
2019-02-23T02:03:54.307Z,4.27
2019-02-23T02:06:23.282Z,6.30
2019-02-23T02:08:51.954Z,4.80
2019-02-23T02:11:23.057Z,5.30
2019-02-23T02:13:51.646Z,4.93
2019-02-23T02:16:20.242Z,4.87
2019-02-23T02:18:48.856Z,5.57
2019-02-23T02:21:17.447Z,4.40
2019-02-23T02:23:46.111Z,5.43
2019-02-23T02:26:14.676Z,5.17
2019-02-23T02:28:43.279Z,4.60
2019-02-23T02:31:11.864Z,5.97
2019-02-23T02:34:08.719Z,5.77
2019-02-23T02:36:37.313Z,6.93
2019-02-23T02:39:09.017Z,4.03
2019-02-23T02:41:37.579Z,6.37
2019-02-23T02:44:06.191Z,6.47
2019-02-23T02:46:34.779Z,6.83
2019-02-23T02:49:03.636Z,7.27
2019-02-23T02:51:32.237Z,6.20
2019-02-23T02:54:00.848Z,4.53
2019-02-23T02:56:29.416Z,7.20
2019-02-23T02:58:58.028Z,8.13
2019-02-23T03:01:26.730Z,7.83
2019-02-23T03:03:55.329Z,7.23
2019-02-23T03:06:23.914Z,6.27
2019-02-23T03:08:52.524Z,5.03
2019-02-23T03:11:21.122Z,8.13
2019-02-23T03:13:50.171Z,6.80
2019-02-23T03:16:18.727Z,8.87
2019-02-23T03:18:47.337Z,7.13
2019-02-23T03:21:16.409Z,10.37
2019-02-23T03:23:45.675Z,6.80
2019-02-23T03:26:14.568Z,7.53
2019-02-23T03:28:43.575Z,11.07
2019-02-23T03:31:13.342Z,9.00
2019-02-23T03:33:41.959Z,9.57
2019-02-23T03:36:10.606Z,6.93
2019-02-23T03:38:40.531Z,9.20
2019-02-23T03:41:09.116Z,8.90
2019-02-23T03:43:37.744Z,8.27
2019-02-23T03:46:06.328Z,8.83
2019-02-23T03:48:35.513Z,10.47
2019-02-23T03:51:04.126Z,10.83
2019-02-23T03:53:33.230Z,11.83
2019-02-23T03:56:02.192Z,6.63
2019-02-23T03:58:30.801Z,9.03
2019-02-23T04:00:59.375Z,7.30
2019-02-23T04:03:28.020Z,8.10
2019-02-23T04:05:56.612Z,7.63
2019-02-23T04:08:25.258Z,10.03
2019-02-23T04:10:53.858Z,8.50
2019-02-23T04:13:22.452Z,7.77
2019-02-23T04:15:51.041Z,5.17
2019-02-23T04:18:19.652Z,6.70
2019-02-23T04:20:48.248Z,6.93
2019-02-23T04:23:16.868Z,8.33
2019-02-23T04:25:45.483Z,8.90
2019-02-23T04:28:14.097Z,7.37
2019-02-23T04:30:43.117Z,6.40
2019-02-23T04:33:11.719Z,8.70
2019-02-23T04:35:40.303Z,8.73
2019-02-23T04:38:09.212Z,13.27
2019-02-23T04:40:37.805Z,7.50
2019-02-23T04:43:07.938Z,9.00
2019-02-23T04:45:36.529Z,9.97
2019-02-23T04:48:05.134Z,8.87
2019-02-23T04:50:33.769Z,8.03
2019-02-23T04:53:02.312Z,12.83
2019-02-23T04:55:31.206Z,6.33
2019-02-23T04:57:59.816Z,9.83
2019-02-23T05:00:28.396Z,9.50
2019-02-23T05:02:57.308Z,8.57
2019-02-23T05:05:25.914Z,10.80
2019-02-23T05:07:54.576Z,10.30
2019-02-23T05:10:23.545Z,14.00
2019-02-23T05:12:52.140Z,9.47
2019-02-23T05:15:21.102Z,8.03
2019-02-23T05:17:49.706Z,7.33
2019-02-23T05:20:18.345Z,8.70
2019-02-23T05:22:46.888Z,8.43
2019-02-23T05:25:15.485Z,9.30
2019-02-23T05:27:44.068Z,7.93
2019-02-23T05:30:13.107Z,13.73
2019-02-23T05:32:41.693Z,8.30
2019-02-23T05:35:12.135Z,11.50
2019-02-23T05:37:40.727Z,10.57
2019-02-23T05:40:11.603Z,12.40
2019-02-23T05:42:40.178Z,8.60
2019-02-23T05:45:11.184Z,11.20
2019-02-23T05:47:39.777Z,11.27
2019-02-23T05:50:09.658Z,8.93
2019-02-23T05:52:38.231Z,9.43
2019-02-23T05:55:06.927Z,10.47
2019-02-23T05:57:35.528Z,9.73
2019-02-23T06:00:06.439Z,10.50
2019-02-23T06:02:35.021Z,9.83
2019-02-23T06:05:03.819Z,12.93
2019-02-23T06:07:32.974Z,11.27
2019-02-23T06:10:01.623Z,13.17
2019-02-23T06:12:30.176Z,9.63
2019-02-23T06:14:58.803Z,11.83
2019-02-23T06:17:27.393Z,11.30
2019-02-23T06:19:55.999Z,8.60
2019-02-23T06:22:24.574Z,9.90
2019-02-23T06:24:53.204Z,11.63
2019-02-23T06:27:21.782Z,8.47
2019-02-23T06:29:50.405Z,13.53
2019-02-23T06:32:19.401Z,8.37
2019-02-23T06:34:48.057Z,8.17
2019-02-23T06:37:16.652Z,8.57
2019-02-23T06:39:45.265Z,10.63
2019-02-23T06:42:13.843Z,10.47
2019-02-23T06:44:42.453Z,9.60
2019-02-23T06:47:11.213Z,10.50
2019-02-23T06:49:39.827Z,10.37
2019-02-23T06:52:08.472Z,10.10
2019-02-23T06:54:37.118Z,7.50
2019-02-23T06:57:05.697Z,13.10
2019-02-23T06:59:34.296Z,9.07
2019-02-23T07:02:03.154Z,10.33
2019-02-23T07:04:32.137Z,8.50
2019-02-23T07:07:00.710Z,11.20
2019-02-23T07:09:29.319Z,14.43
2019-02-23T07:11:58.186Z,15.00
2019-02-23T07:14:26.809Z,10.27
2019-02-23T07:16:55.397Z,10.23
2019-02-23T07:19:23.996Z,12.87
2019-02-23T07:21:52.576Z,10.97
2019-02-23T07:24:21.189Z,10.20
2019-02-23T07:26:49.774Z,14.50
2019-02-23T07:29:18.562Z,10.43
2019-02-23T07:31:47.132Z,14.33
2019-02-23T07:34:16.304Z,11.30
2019-02-23T07:36:45.164Z,10.80
2019-02-23T07:39:13.767Z,11.43
2019-02-23T07:41:42.355Z,9.43
2019-02-23T07:44:10.969Z,14.07
2019-02-23T07:46:39.951Z,12.63
2019-02-23T07:49:08.535Z,9.70
2019-02-23T07:51:37.120Z,9.57
2019-02-23T07:54:05.730Z,12.07
2019-02-23T07:56:35.144Z,12.30
2019-02-23T07:59:03.926Z,12.30
2019-02-23T08:01:32.496Z,8.23
2019-02-23T08:04:01.896Z,9.67
2019-02-23T08:06:32.465Z,9.23
2019-02-23T08:09:01.063Z,12.27
2019-02-23T08:11:29.667Z,9.23
2019-02-23T08:13:58.272Z,10.27
2019-02-23T08:16:26.866Z,9.97
2019-02-23T08:18:55.421Z,10.77
2019-02-23T08:21:24.033Z,9.23
2019-02-23T08:23:52.595Z,6.73
2019-02-23T08:26:21.190Z,9.60
2019-02-23T08:28:49.759Z,11.40
2019-02-23T08:31:18.368Z,9.23
2019-02-23T08:33:47.130Z,8.33
2019-02-23T08:36:15.748Z,9.13
2019-02-23T08:38:44.326Z,13.33
2019-02-23T08:41:12.918Z,8.23
2019-02-23T08:43:41.490Z,7.00
2019-02-23T08:46:10.108Z,5.73
2019-02-23T08:48:38.658Z,9.63
2019-02-23T08:51:07.269Z,5.90
2019-02-23T08:53:35.836Z,7.83
2019-02-23T08:56:04.447Z,7.33
2019-02-23T08:58:33.033Z,9.93
2019-02-23T09:01:01.651Z,5.73
2019-02-23T09:03:30.212Z,7.13
2019-02-23T09:05:58.853Z,7.23
2019-02-23T09:08:27.419Z,9.30
2019-02-23T09:10:56.018Z,7.10
2019-02-23T09:13:24.594Z,7.13
2019-02-23T09:15:53.192Z,7.23
2019-02-23T09:18:21.766Z,7.70
2019-02-23T09:20:51.963Z,5.50
2019-02-23T09:23:20.564Z,8.23
2019-02-23T09:25:49.260Z,5.93
2019-02-23T09:28:17.865Z,8.27
2019-02-23T09:30:46.455Z,8.57
2019-02-23T09:33:15.041Z,6.33
2019-02-23T09:35:43.675Z,8.27
2019-02-23T09:38:12.328Z,7.50
2019-02-23T09:40:40.905Z,5.60
2019-02-23T09:43:09.804Z,8.43
2019-02-23T09:45:38.410Z,8.53
2019-02-23T09:48:06.988Z,9.77
2019-02-23T09:50:35.608Z,7.50
2019-02-23T09:53:11.306Z,10.07
2019-02-23T09:55:34.429Z,9.60
2019-02-23T09:58:03.016Z,5.93
2019-02-23T10:00:32.733Z,9.37
2019-02-23T10:03:01.332Z,6.97
2019-02-23T10:05:31.131Z,5.73
2019-02-23T10:08:00.594Z,5.93
2019-02-23T10:10:29.181Z,7.53
2019-02-23T10:12:57.795Z,6.43
2019-02-23T10:15:26.372Z,6.60
2019-02-23T10:17:54.981Z,7.17
2019-02-23T10:20:23.584Z,5.97
2019-02-23T10:22:52.441Z,7.47
2019-02-23T10:25:21.028Z,4.50
2019-02-23T10:27:49.633Z,5.37
2019-02-23T10:30:18.201Z,7.30
2019-02-23T10:32:46.807Z,6.43
2019-02-23T10:35:15.404Z,4.47
2019-02-23T10:37:44.015Z,6.97
2019-02-23T10:40:13.254Z,5.70
2019-02-23T10:42:44.015Z,7.53
2019-02-23T10:45:13.735Z,4.17
2019-02-23T10:47:42.358Z,7.00
2019-02-23T10:50:12.574Z,6.73
2019-02-23T10:52:41.188Z,8.50
2019-02-23T10:55:11.917Z,5.03
2019-02-23T10:57:40.851Z,8.67
2019-02-23T11:00:14.156Z,8.00
2019-02-23T11:02:42.747Z,4.40
2019-02-23T11:05:11.480Z,3.70
2019-02-23T11:07:40.372Z,4.07
2019-02-23T11:10:10.121Z,5.17
2019-02-23T11:12:38.732Z,6.57
2019-02-23T11:15:15.647Z,8.07
2019-02-23T11:17:44.691Z,5.03
2019-02-23T11:20:13.944Z,5.37
2019-02-23T11:22:42.590Z,6.83
2019-02-23T11:25:12.079Z,4.10
2019-02-23T11:27:40.757Z,6.73
2019-02-23T11:30:14.261Z,5.03
2019-02-23T11:32:42.878Z,4.13
2019-02-23T11:35:13.690Z,3.87
2019-02-23T11:37:42.297Z,3.83
2019-02-23T11:40:12.134Z,3.87
2019-02-23T11:42:40.763Z,5.50
2019-02-23T11:45:10.864Z,4.80
2019-02-23T11:47:39.480Z,9.73
2019-02-23T11:50:12.911Z,7.53
2019-02-23T11:52:41.636Z,4.53
2019-02-23T11:55:10.415Z,5.57
2019-02-23T11:57:40.313Z,4.60
2019-02-23T12:00:13.375Z,5.93
2019-02-23T12:02:52.015Z,5.33
2019-02-23T12:05:12.282Z,5.33
2019-02-23T12:07:40.891Z,5.20
2019-02-23T12:10:12.539Z,7.30
2019-02-23T12:12:41.420Z,5.10
2019-02-23T12:15:10.492Z,6.87
2019-02-23T12:17:39.090Z,4.80
2019-02-23T12:20:09.654Z,6.47
2019-02-23T12:22:38.264Z,6.73
2019-02-23T12:25:07.839Z,6.53
2019-02-23T12:27:36.435Z,4.47
2019-02-23T12:30:10.125Z,5.37
2019-02-23T12:32:38.719Z,4.87
2019-02-23T12:35:09.676Z,4.63
2019-02-23T12:37:38.267Z,5.07
2019-02-23T12:40:08.527Z,5.13
2019-02-23T12:42:37.152Z,6.23
2019-02-23T12:45:08.351Z,4.97
2019-02-23T12:47:37.083Z,6.00
2019-02-23T12:50:08.897Z,9.40
2019-02-23T12:52:37.472Z,5.03
2019-02-23T12:55:08.902Z,7.73
2019-02-23T12:57:37.823Z,5.10
2019-02-23T13:00:12.622Z,5.77
2019-02-23T13:02:42.432Z,5.50
2019-02-23T13:05:11.714Z,4.93
2019-02-23T13:07:40.654Z,5.47
2019-02-23T13:10:11.638Z,4.70
2019-02-23T13:12:58.237Z,4.97
2019-02-23T13:15:35.792Z,6.77
2019-02-23T13:18:19.300Z,8.90
2019-02-23T13:20:53.477Z,6.30
2019-02-23T13:23:43.197Z,7.70
2019-02-23T13:26:40.790Z,7.03
2019-02-23T13:29:44.387Z,7.40
2019-02-23T13:32:28.067Z,5.20
2019-02-23T13:35:11.552Z,5.57
2019-02-23T13:37:55.083Z,6.33
2019-02-23T13:41:00.086Z,4.93
2019-02-23T13:43:44.034Z,4.47
2019-02-23T13:46:18.610Z,7.47
2019-02-23T13:48:59.707Z,6.83
2019-02-23T13:51:34.268Z,7.50
2019-02-23T13:54:11.759Z,7.10
2019-02-23T13:57:07.646Z,9.27
2019-02-23T13:59:51.182Z,6.43
2019-02-23T14:02:31.086Z,6.57
2019-02-23T14:05:21.095Z,7.10
2019-02-23T14:08:01.494Z,7.60
2019-02-23T14:10:45.512Z,7.70
2019-02-23T14:13:35.140Z,10.30
2019-02-23T14:16:09.862Z,6.80
2019-02-23T14:18:42.462Z,4.80
2019-02-23T14:21:37.543Z,5.17
2019-02-23T14:24:24.452Z,8.27
2019-02-23T14:27:05.000Z,8.77
2019-02-23T14:29:48.170Z,6.70
2019-02-23T14:32:39.748Z,6.87
2019-02-23T14:35:34.724Z,9.03
2019-02-23T14:38:06.394Z,5.83
2019-02-23T14:40:43.502Z,5.70
2019-02-23T14:43:27.140Z,5.50
2019-02-23T14:46:27.451Z,6.00
2019-02-23T14:48:59.113Z,6.80
2019-02-23T14:51:42.911Z,4.93
2019-02-23T14:54:14.558Z,6.27
2019-02-23T14:57:02.850Z,6.77
2019-02-23T14:59:53.044Z,6.67
2019-02-23T15:02:41.244Z,6.17
2019-02-23T15:05:27.827Z,5.87
2019-02-23T15:08:08.334Z,5.50
2019-02-23T15:11:14.780Z,7.03
2019-02-23T15:13:58.534Z,3.93
2019-02-23T15:16:44.991Z,6.70
2019-02-23T15:19:46.885Z,5.50
2019-02-23T15:22:36.679Z,6.73
2019-02-23T15:25:17.617Z,4.83
2019-02-23T15:27:57.444Z,5.20
2019-02-23T15:30:43.816Z,7.00
2019-02-23T15:33:21.603Z,5.27
2019-02-23T15:35:59.556Z,4.77
2019-02-23T15:38:54.705Z,5.50
2019-02-23T15:41:32.098Z,6.03
2019-02-23T15:44:24.271Z,6.90
2019-02-23T15:47:04.712Z,6.67
2019-02-23T15:49:33.618Z,9.67
2019-02-23T15:52:03.357Z,4.77
2019-02-23T15:54:31.946Z,6.87
2019-02-23T15:57:00.564Z,7.37
2019-02-23T15:59:29.107Z,7.67
2019-02-23T16:01:57.683Z,6.13
2019-02-23T16:04:26.282Z,7.00
2019-02-23T16:06:55.438Z,8.17
2019-02-23T16:09:24.036Z,5.30
2019-02-23T16:11:52.620Z,8.77
2019-02-23T16:14:21.228Z,12.47
2019-02-23T16:16:49.849Z,8.53
2019-02-23T16:19:18.430Z,8.57
2019-02-23T16:21:47.084Z,8.30
2019-02-23T16:24:15.998Z,9.83
2019-02-23T16:26:44.860Z,11.43
2019-02-23T16:29:13.472Z,11.10
2019-02-23T16:31:42.427Z,11.60
2019-02-23T16:34:11.030Z,9.20
2019-02-23T16:36:39.631Z,9.80
2019-02-23T16:39:12.281Z,7.53
2019-02-23T16:41:40.918Z,12.23
2019-02-23T16:44:09.529Z,10.30
2019-02-23T16:46:38.126Z,9.43
2019-02-23T16:49:06.797Z,8.67
2019-02-23T16:51:35.374Z,9.27
2019-02-23T16:54:04.295Z,10.60
2019-02-23T16:56:32.935Z,7.00
2019-02-23T16:59:01.457Z,8.33
2019-02-23T17:01:30.072Z,8.60
2019-02-23T17:03:58.658Z,11.00
2019-02-23T17:06:27.303Z,8.40
2019-02-23T17:08:55.850Z,9.60
2019-02-23T17:11:24.466Z,7.80
2019-02-23T17:13:53.047Z,8.37
2019-02-23T17:16:23.924Z,11.03
2019-02-23T17:18:53.847Z,7.03
2019-02-23T17:21:22.397Z,8.17
2019-02-23T17:23:50.986Z,6.70
2019-02-23T17:26:19.599Z,9.10
2019-02-23T17:28:48.204Z,5.97
2019-02-23T17:31:16.791Z,7.67
2019-02-23T17:33:45.446Z,6.77
2019-02-23T17:36:14.006Z,7.73
2019-02-23T17:38:44.685Z,6.23
2019-02-23T17:41:12.864Z,7.77
2019-02-23T17:43:41.487Z,8.37
2019-02-23T17:46:10.135Z,7.47
2019-02-23T17:48:38.747Z,7.80
2019-02-23T17:51:07.990Z,7.30
2019-02-23T17:53:36.506Z,6.93
2019-02-23T17:56:12.097Z,10.53
2019-02-23T17:58:35.894Z,9.07
2019-02-23T18:01:06.006Z,8.47
2019-02-23T18:03:34.577Z,8.17
2019-02-23T18:06:03.185Z,10.23
2019-02-23T18:08:31.764Z,8.27
2019-02-23T18:11:00.589Z,9.73
2019-02-23T18:13:29.299Z,13.00
2019-02-23T18:15:57.907Z,7.47
2019-02-23T18:18:26.482Z,10.17
2019-02-23T18:20:56.280Z,8.93
2019-02-23T18:23:24.919Z,10.50
2019-02-23T18:25:54.695Z,14.60
2019-02-23T18:28:23.268Z,11.50
2019-02-23T18:30:51.912Z,12.83
2019-02-23T18:33:20.493Z,11.43
2019-02-23T18:35:50.670Z,14.23
2019-02-23T18:38:19.337Z,7.40
2019-02-23T18:40:49.581Z,11.03
2019-02-23T18:43:22.813Z,10.60
2019-02-23T18:45:51.746Z,10.07
2019-02-23T18:48:28.648Z,15.13
2019-02-23T18:50:57.586Z,9.47
2019-02-23T18:53:26.148Z,13.03
2019-02-23T18:56:00.761Z,9.27
2019-02-23T18:58:29.332Z,9.00
2019-02-23T19:00:58.900Z,11.80
2019-02-23T19:03:27.526Z,9.37
2019-02-23T19:05:56.142Z,10.83
2019-02-23T19:08:24.845Z,8.73
2019-02-23T19:10:56.149Z,9.73
2019-02-23T19:13:25.262Z,11.73
2019-02-23T19:15:53.919Z,11.17
2019-02-23T19:18:22.490Z,8.07
2019-02-23T19:20:51.174Z,14.97
2019-02-23T19:23:19.799Z,12.93
2019-02-23T19:25:48.469Z,13.43
2019-02-23T19:28:17.303Z,12.23
2019-02-23T19:30:45.890Z,12.83
2019-02-23T19:33:14.514Z,11.93
2019-02-23T19:35:43.115Z,6.97
2019-02-23T19:38:11.738Z,12.27
2019-02-23T19:40:40.319Z,9.23
2019-02-23T19:43:09.045Z,13.43
2019-02-23T19:45:37.641Z,14.03
2019-02-23T19:48:06.354Z,13.50
2019-02-23T19:50:38.707Z,14.93
2019-02-23T19:53:07.817Z,14.77
2019-02-23T19:55:36.428Z,10.13
2019-02-23T19:58:05.048Z,11.90
2019-02-23T20:00:33.748Z,11.93
2019-02-23T20:03:02.371Z,12.93
2019-02-23T20:05:31.546Z,11.87
2019-02-23T20:08:00.159Z,13.13
2019-02-23T20:10:30.025Z,12.87
2019-02-23T20:12:58.647Z,10.90
2019-02-23T20:15:27.271Z,11.07
2019-02-23T20:17:55.887Z,12.37
2019-02-23T20:20:24.555Z,15.30
2019-02-23T20:22:53.214Z,14.57
2019-02-23T20:25:21.807Z,13.13
2019-02-23T20:27:50.482Z,14.07
2019-02-23T20:30:19.124Z,14.53
2019-02-23T20:32:47.816Z,12.13
2019-02-23T20:35:16.404Z,14.40
2019-02-23T20:37:45.035Z,13.77
2019-02-23T20:40:13.622Z,9.93
2019-02-23T20:42:42.260Z,12.10
2019-02-23T20:45:10.960Z,13.63
2019-02-23T20:47:39.599Z,15.07
2019-02-23T20:50:10.192Z,14.67
2019-02-23T20:52:38.730Z,13.70
2019-02-23T20:55:08.708Z,12.40
2019-02-23T20:57:37.351Z,16.07
2019-02-23T21:00:08.705Z,14.43
2019-02-23T21:02:37.349Z,10.77
2019-02-23T21:05:09.328Z,13.60
2019-02-23T21:07:38.094Z,15.23
2019-02-23T21:10:08.986Z,11.77
2019-02-23T21:12:37.598Z,11.30
2019-02-23T21:15:08.639Z,12.03
2019-02-23T21:17:37.255Z,11.50
2019-02-23T21:20:09.077Z,12.30
2019-02-23T21:22:38.339Z,15.67
2019-02-23T21:25:08.952Z,14.50
2019-02-23T21:27:37.931Z,19.50
2019-02-23T21:30:10.828Z,16.37
2019-02-23T21:32:39.981Z,12.60
2019-02-23T21:35:10.386Z,12.93
2019-02-23T21:37:39.968Z,14.00
2019-02-23T21:40:09.811Z,12.10
2019-02-23T21:42:38.413Z,10.53
2019-02-23T21:45:09.269Z,11.53
2019-02-23T21:47:37.880Z,12.27
2019-02-23T21:50:12.295Z,12.27
2019-02-23T21:52:41.560Z,12.90
2019-02-23T21:55:10.157Z,12.27
2019-02-23T21:57:38.805Z,13.63
2019-02-23T22:00:09.317Z,12.63
2019-02-23T22:02:38.338Z,8.53
2019-02-23T22:05:12.364Z,8.37
2019-02-23T22:07:37.316Z,11.23
2019-02-23T22:10:08.352Z,9.23
2019-02-23T22:12:37.044Z,8.77
2019-02-23T22:15:06.843Z,12.80
2019-02-23T22:17:37.205Z,11.87
2019-02-23T22:20:08.000Z,13.57
2019-02-23T22:22:36.601Z,14.97
2019-02-23T22:25:06.171Z,10.37
2019-02-23T22:27:34.805Z,11.00
2019-02-23T22:30:03.538Z,9.70
2019-02-23T22:32:32.154Z,11.93
2019-02-23T22:35:00.941Z,8.60
2019-02-23T22:37:29.487Z,9.87
2019-02-23T22:39:59.647Z,11.70
2019-02-23T22:42:28.210Z,11.57
2019-02-23T22:44:56.834Z,8.97
2019-02-23T22:47:32.160Z,14.93
2019-02-23T22:50:00.823Z,11.33
2019-02-23T22:52:29.386Z,14.27
2019-02-23T22:54:58.272Z,12.70
2019-02-23T22:57:26.907Z,13.03
2019-02-23T22:59:55.484Z,13.17
2019-02-23T23:02:24.321Z,12.17
2019-02-23T23:04:53.024Z,21.53
2019-02-23T23:07:21.618Z,18.53
2019-02-23T23:09:50.227Z,17.60
2019-02-23T23:12:18.973Z,18.83
2019-02-23T23:14:47.572Z,13.03
2019-02-23T23:17:18.274Z,12.40
2019-02-23T23:19:49.554Z,12.13
2019-02-23T23:22:18.129Z,11.07
2019-02-23T23:24:48.388Z,8.93
2019-02-23T23:27:17.081Z,12.23
2019-02-23T23:29:48.556Z,13.20
2019-02-23T23:32:17.250Z,9.33
2019-02-23T23:34:47.139Z,11.10
2019-02-23T23:37:16.049Z,10.77
2019-02-23T23:39:44.622Z,10.77
2019-02-23T23:42:17.536Z,9.63
2019-02-23T23:44:46.456Z,9.90
2019-02-23T23:47:15.043Z,11.00
2019-02-23T23:49:43.638Z,9.83
2019-02-23T23:52:12.222Z,11.40
2019-02-23T23:54:40.840Z,13.63
2019-02-23T23:57:09.405Z,13.90
2019-02-23T23:59:38.052Z,12.43
